sensor_id;sensor_type;location;lat;lon;timestamp;temperature;humidity
51035;DHT22;37062;52.546;13.230;2022-07-29T00:02:03;17.30;99.90
51035;DHT22;37062;52.546;13.230;2022-07-29T00:04:30;17.40;99.90
51035;DHT22;37062;52.546;13.230;2022-07-29T00:06:58;17.40;99.90
51035;DHT22;37062;52.546;13.230;2022-07-29T00:09:25;17.30;99.90
51035;DHT22;37062;52.546;13.230;2022-07-29T00:11:53;17.30;99.90
51035;DHT22;37062;52.546;13.230;2022-07-29T00:14:21;17.30;99.90
51035;DHT22;37062;52.546;13.230;2022-07-29T00:16:48;17.20;99.90
51035;DHT22;37062;52.546;13.230;2022-07-29T00:19:15;17.20;99.90
51035;DHT22;37062;52.546;13.230;2022-07-29T00:21:42;17.20;99.90
51035;DHT22;37062;52.546;13.230;2022-07-29T00:24:11;17.20;99.90
51035;DHT22;37062;52.546;13.230;2022-07-29T00:26:38;17.10;99.90
51035;DHT22;37062;52.546;13.230;2022-07-29T00:29:04;17.00;99.90
51035;DHT22;37062;52.546;13.230;2022-07-29T00:31:32;17.00;99.90
51035;DHT22;37062;52.546;13.230;2022-07-29T00:33:58;17.00;99.90
51035;DHT22;37062;52.546;13.230;2022-07-29T00:36:25;17.00;99.90
51035;DHT22;37062;52.546;13.230;2022-07-29T00:38:51;17.00;99.90
51035;DHT22;37062;52.546;13.230;2022-07-29T00:41:20;17.00;99.90
51035;DHT22;37062;52.546;13.230;2022-07-29T00:43:47;16.90;99.90
51035;DHT22;37062;52.546;13.230;2022-07-29T00:46:14;16.90;99.90
51035;DHT22;37062;52.546;13.230;2022-07-29T00:48:41;16.90;99.90
51035;DHT22;37062;52.546;13.230;2022-07-29T00:51:08;16.90;99.90
51035;DHT22;37062;52.546;13.230;2022-07-29T00:53:35;16.90;99.90
51035;DHT22;37062;52.546;13.230;2022-07-29T00:56:03;16.90;99.90
51035;DHT22;37062;52.546;13.230;2022-07-29T00:58:31;16.90;99.90
51035;DHT22;37062;52.546;13.230;2022-07-29T01:00:59;16.90;99.90
51035;DHT22;37062;52.546;13.230;2022-07-29T01:03:30;16.90;99.90
51035;DHT22;37062;52.546;13.230;2022-07-29T01:05:58;16.90;99.90
51035;DHT22;37062;52.546;13.230;2022-07-29T01:08:27;16.80;99.90
51035;DHT22;37062;52.546;13.230;2022-07-29T01:10:54;16.80;99.90
51035;DHT22;37062;52.546;13.230;2022-07-29T01:13:22;16.70;99.90
51035;DHT22;37062;52.546;13.230;2022-07-29T01:15:56;16.70;99.90
51035;DHT22;37062;52.546;13.230;2022-07-29T01:18:28;16.70;99.90
51035;DHT22;37062;52.546;13.230;2022-07-29T01:21:24;16.60;99.90
51035;DHT22;37062;52.546;13.230;2022-07-29T01:24:19;16.60;99.90
51035;DHT22;37062;52.546;13.230;2022-07-29T01:26:56;16.50;99.90
51035;DHT22;37062;52.546;13.230;2022-07-29T01:29:27;16.60;99.90
51035;DHT22;37062;52.546;13.230;2022-07-29T01:32:00;16.60;99.90
51035;DHT22;37062;52.546;13.230;2022-07-29T01:34:33;16.60;99.90
51035;DHT22;37062;52.546;13.230;2022-07-29T01:37:06;16.50;99.90
51035;DHT22;37062;52.546;13.230;2022-07-29T01:39:36;16.50;99.90
51035;DHT22;37062;52.546;13.230;2022-07-29T01:42:10;16.50;99.90
51035;DHT22;37062;52.546;13.230;2022-07-29T01:44:45;16.50;99.90
51035;DHT22;37062;52.546;13.230;2022-07-29T01:47:19;16.50;99.90
51035;DHT22;37062;52.546;13.230;2022-07-29T01:49:51;16.40;99.90
51035;DHT22;37062;52.546;13.230;2022-07-29T01:52:21;16.40;99.90
51035;DHT22;37062;52.546;13.230;2022-07-29T01:54:53;16.40;99.90
51035;DHT22;37062;52.546;13.230;2022-07-29T01:57:25;16.30;99.90
51035;DHT22;37062;52.546;13.230;2022-07-29T01:59:55;16.40;99.90
51035;DHT22;37062;52.546;13.230;2022-07-29T02:02:23;16.30;99.90
51035;DHT22;37062;52.546;13.230;2022-07-29T02:04:52;16.20;99.90
51035;DHT22;37062;52.546;13.230;2022-07-29T02:07:21;16.20;99.90
51035;DHT22;37062;52.546;13.230;2022-07-29T02:09:51;16.10;99.90
51035;DHT22;37062;52.546;13.230;2022-07-29T02:12:20;16.10;99.90
51035;DHT22;37062;52.546;13.230;2022-07-29T02:14:51;16.10;99.90
51035;DHT22;37062;52.546;13.230;2022-07-29T02:17:23;16.10;99.90
51035;DHT22;37062;52.546;13.230;2022-07-29T02:19:53;16.10;99.90
51035;DHT22;37062;52.546;13.230;2022-07-29T02:22:23;16.10;99.90
51035;DHT22;37062;52.546;13.230;2022-07-29T02:24:51;16.10;99.90
51035;DHT22;37062;52.546;13.230;2022-07-29T02:27:20;16.10;99.90
51035;DHT22;37062;52.546;13.230;2022-07-29T02:29:48;16.10;99.90
51035;DHT22;37062;52.546;13.230;2022-07-29T02:32:16;16.10;99.90
51035;DHT22;37062;52.546;13.230;2022-07-29T02:34:46;16.10;99.90
51035;DHT22;37062;52.546;13.230;2022-07-29T02:37:16;16.10;99.90
51035;DHT22;37062;52.546;13.230;2022-07-29T02:39:44;16.10;99.90
51035;DHT22;37062;52.546;13.230;2022-07-29T02:42:13;16.10;99.90
51035;DHT22;37062;52.546;13.230;2022-07-29T02:44:41;16.10;99.90
51035;DHT22;37062;52.546;13.230;2022-07-29T02:47:13;16.20;99.90
51035;DHT22;37062;52.546;13.230;2022-07-29T02:49:50;16.30;99.90
51035;DHT22;37062;52.546;13.230;2022-07-29T02:52:21;16.30;99.90
51035;DHT22;37062;52.546;13.230;2022-07-29T02:54:55;16.40;99.90
51035;DHT22;37062;52.546;13.230;2022-07-29T02:57:31;16.30;99.90
51035;DHT22;37062;52.546;13.230;2022-07-29T03:00:04;16.20;99.90
51035;DHT22;37062;52.546;13.230;2022-07-29T03:02:34;16.30;99.90
51035;DHT22;37062;52.546;13.230;2022-07-29T03:05:05;16.30;99.90
51035;DHT22;37062;52.546;13.230;2022-07-29T03:07:33;16.40;99.90
51035;DHT22;37062;52.546;13.230;2022-07-29T03:10:02;16.40;99.90
51035;DHT22;37062;52.546;13.230;2022-07-29T03:12:30;16.40;99.90
51035;DHT22;37062;52.546;13.230;2022-07-29T03:14:58;16.40;99.90
51035;DHT22;37062;52.546;13.230;2022-07-29T03:17:26;16.50;99.90
51035;DHT22;37062;52.546;13.230;2022-07-29T03:19:53;16.50;99.90
51035;DHT22;37062;52.546;13.230;2022-07-29T03:22:22;16.50;99.90
51035;DHT22;37062;52.546;13.230;2022-07-29T03:24:50;16.50;99.90
51035;DHT22;37062;52.546;13.230;2022-07-29T03:27:17;16.50;99.90
51035;DHT22;37062;52.546;13.230;2022-07-29T03:29:44;16.40;99.90
51035;DHT22;37062;52.546;13.230;2022-07-29T03:32:11;16.40;99.90
51035;DHT22;37062;52.546;13.230;2022-07-29T03:34:38;16.30;99.90
51035;DHT22;37062;52.546;13.230;2022-07-29T03:37:05;16.40;99.90
51035;DHT22;37062;52.546;13.230;2022-07-29T03:39:38;16.30;99.90
51035;DHT22;37062;52.546;13.230;2022-07-29T03:42:07;16.30;99.90
51035;DHT22;37062;52.546;13.230;2022-07-29T03:44:36;16.30;99.90
51035;DHT22;37062;52.546;13.230;2022-07-29T03:47:04;16.40;99.90
51035;DHT22;37062;52.546;13.230;2022-07-29T03:49:32;16.40;99.90
51035;DHT22;37062;52.546;13.230;2022-07-29T03:52:03;16.40;99.90
51035;DHT22;37062;52.546;13.230;2022-07-29T03:54:30;16.30;99.90
51035;DHT22;37062;52.546;13.230;2022-07-29T03:57:03;16.30;99.90
51035;DHT22;37062;52.546;13.230;2022-07-29T03:59:32;16.30;99.90
51035;DHT22;37062;52.546;13.230;2022-07-29T04:02:01;16.30;99.90
51035;DHT22;37062;52.546;13.230;2022-07-29T04:04:32;16.40;99.90
51035;DHT22;37062;52.546;13.230;2022-07-29T04:07:00;16.40;99.90
51035;DHT22;37062;52.546;13.230;2022-07-29T04:09:27;16.40;99.90
51035;DHT22;37062;52.546;13.230;2022-07-29T04:11:54;16.40;99.90
51035;DHT22;37062;52.546;13.230;2022-07-29T04:14:22;16.50;99.90
51035;DHT22;37062;52.546;13.230;2022-07-29T04:16:49;16.50;99.90
51035;DHT22;37062;52.546;13.230;2022-07-29T04:19:16;16.50;99.90
51035;DHT22;37062;52.546;13.230;2022-07-29T04:21:43;16.50;99.90
51035;DHT22;37062;52.546;13.230;2022-07-29T04:24:10;16.50;99.90
51035;DHT22;37062;52.546;13.230;2022-07-29T04:26:37;16.50;99.90
51035;DHT22;37062;52.546;13.230;2022-07-29T04:29:04;16.70;99.90
51035;DHT22;37062;52.546;13.230;2022-07-29T04:31:33;16.80;99.90
51035;DHT22;37062;52.546;13.230;2022-07-29T04:33:59;16.90;99.90
51035;DHT22;37062;52.546;13.230;2022-07-29T04:36:27;16.80;99.90
51035;DHT22;37062;52.546;13.230;2022-07-29T04:38:54;16.80;99.90
51035;DHT22;37062;52.546;13.230;2022-07-29T04:41:21;16.90;99.90
51035;DHT22;37062;52.546;13.230;2022-07-29T04:43:47;17.00;99.90
51035;DHT22;37062;52.546;13.230;2022-07-29T04:46:15;17.00;99.90
51035;DHT22;37062;52.546;13.230;2022-07-29T04:48:45;17.00;99.90
51035;DHT22;37062;52.546;13.230;2022-07-29T04:51:13;17.00;99.90
51035;DHT22;37062;52.546;13.230;2022-07-29T04:53:40;17.10;99.90
51035;DHT22;37062;52.546;13.230;2022-07-29T04:56:07;17.20;99.90
51035;DHT22;37062;52.546;13.230;2022-07-29T04:58:34;17.20;99.90
51035;DHT22;37062;52.546;13.230;2022-07-29T05:01:02;17.20;99.90
51035;DHT22;37062;52.546;13.230;2022-07-29T05:03:29;17.30;99.90
51035;DHT22;37062;52.546;13.230;2022-07-29T05:05:57;17.60;99.90
51035;DHT22;37062;52.546;13.230;2022-07-29T05:08:24;17.90;99.90
51035;DHT22;37062;52.546;13.230;2022-07-29T05:10:52;18.30;99.90
51035;DHT22;37062;52.546;13.230;2022-07-29T05:13:20;19.00;99.90
51035;DHT22;37062;52.546;13.230;2022-07-29T05:15:47;19.60;99.90
51035;DHT22;37062;52.546;13.230;2022-07-29T05:18:14;19.70;99.90
51035;DHT22;37062;52.546;13.230;2022-07-29T05:20:41;19.60;99.90
51035;DHT22;37062;52.546;13.230;2022-07-29T05:23:10;19.40;99.90
51035;DHT22;37062;52.546;13.230;2022-07-29T05:25:38;19.30;99.90
51035;DHT22;37062;52.546;13.230;2022-07-29T05:28:05;19.10;99.90
51035;DHT22;37062;52.546;13.230;2022-07-29T05:30:32;19.00;99.90
51035;DHT22;37062;52.546;13.230;2022-07-29T05:32:59;18.90;99.90
51035;DHT22;37062;52.546;13.230;2022-07-29T05:35:26;18.80;99.90
51035;DHT22;37062;52.546;13.230;2022-07-29T05:37:53;18.70;99.90
51035;DHT22;37062;52.546;13.230;2022-07-29T05:40:22;18.70;99.90
51035;DHT22;37062;52.546;13.230;2022-07-29T05:42:49;18.60;99.90
51035;DHT22;37062;52.546;13.230;2022-07-29T05:45:16;18.70;99.90
51035;DHT22;37062;52.546;13.230;2022-07-29T05:47:43;18.70;99.90
51035;DHT22;37062;52.546;13.230;2022-07-29T05:50:11;18.70;99.90
51035;DHT22;37062;52.546;13.230;2022-07-29T05:52:38;18.70;99.90
51035;DHT22;37062;52.546;13.230;2022-07-29T05:55:05;18.80;99.90
51035;DHT22;37062;52.546;13.230;2022-07-29T05:57:34;18.90;99.90
51035;DHT22;37062;52.546;13.230;2022-07-29T06:00:01;19.10;99.90
51035;DHT22;37062;52.546;13.230;2022-07-29T06:02:38;19.30;99.90
51035;DHT22;37062;52.546;13.230;2022-07-29T06:05:05;19.50;99.90
51035;DHT22;37062;52.546;13.230;2022-07-29T06:07:33;19.70;99.90
51035;DHT22;37062;52.546;13.230;2022-07-29T06:10:00;19.90;99.90
51035;DHT22;37062;52.546;13.230;2022-07-29T06:12:27;20.00;99.90
51035;DHT22;37062;52.546;13.230;2022-07-29T06:14:55;20.10;99.90
51035;DHT22;37062;52.546;13.230;2022-07-29T06:17:22;20.30;99.90
51035;DHT22;37062;52.546;13.230;2022-07-29T06:19:49;20.50;99.90
51035;DHT22;37062;52.546;13.230;2022-07-29T06:22:16;20.50;99.90
51035;DHT22;37062;52.546;13.230;2022-07-29T06:24:43;20.50;99.90
51035;DHT22;37062;52.546;13.230;2022-07-29T06:27:10;20.30;99.90
51035;DHT22;37062;52.546;13.230;2022-07-29T06:29:38;20.30;99.90
51035;DHT22;37062;52.546;13.230;2022-07-29T06:32:06;20.20;99.90
51035;DHT22;37062;52.546;13.230;2022-07-29T06:34:34;20.10;99.90
51035;DHT22;37062;52.546;13.230;2022-07-29T06:37:06;20.10;99.90
51035;DHT22;37062;52.546;13.230;2022-07-29T06:39:34;20.10;99.90
51035;DHT22;37062;52.546;13.230;2022-07-29T06:42:01;20.00;99.90
51035;DHT22;37062;52.546;13.230;2022-07-29T06:44:30;19.90;99.90
51035;DHT22;37062;52.546;13.230;2022-07-29T06:46:59;20.00;99.90
51035;DHT22;37062;52.546;13.230;2022-07-29T06:49:28;20.20;99.90
51035;DHT22;37062;52.546;13.230;2022-07-29T06:51:55;20.40;99.90
51035;DHT22;37062;52.546;13.230;2022-07-29T06:54:22;20.50;99.90
51035;DHT22;37062;52.546;13.230;2022-07-29T06:56:49;20.50;99.90
51035;DHT22;37062;52.546;13.230;2022-07-29T06:59:16;20.50;99.90
51035;DHT22;37062;52.546;13.230;2022-07-29T07:01:43;20.80;99.90
51035;DHT22;37062;52.546;13.230;2022-07-29T07:04:10;21.20;99.90
51035;DHT22;37062;52.546;13.230;2022-07-29T07:06:39;21.70;99.90
51035;DHT22;37062;52.546;13.230;2022-07-29T07:09:06;22.30;99.90
51035;DHT22;37062;52.546;13.230;2022-07-29T07:11:33;22.90;99.90
51035;DHT22;37062;52.546;13.230;2022-07-29T07:14:00;23.20;99.90
51035;DHT22;37062;52.546;13.230;2022-07-29T07:16:27;23.40;99.90
51035;DHT22;37062;52.546;13.230;2022-07-29T07:18:54;23.50;99.90
51035;DHT22;37062;52.546;13.230;2022-07-29T07:21:22;23.60;99.90
51035;DHT22;37062;52.546;13.230;2022-07-29T07:23:50;23.70;99.90
51035;DHT22;37062;52.546;13.230;2022-07-29T07:26:17;23.70;99.90
51035;DHT22;37062;52.546;13.230;2022-07-29T07:28:44;23.80;99.90
51035;DHT22;37062;52.546;13.230;2022-07-29T07:31:11;24.00;99.90
51035;DHT22;37062;52.546;13.230;2022-07-29T07:33:38;24.10;99.90
51035;DHT22;37062;52.546;13.230;2022-07-29T07:36:05;24.30;99.90
51035;DHT22;37062;52.546;13.230;2022-07-29T07:38:32;24.70;99.90
51035;DHT22;37062;52.546;13.230;2022-07-29T07:41:05;24.80;99.90
51035;DHT22;37062;52.546;13.230;2022-07-29T07:43:32;24.70;99.90
51035;DHT22;37062;52.546;13.230;2022-07-29T07:46:01;25.00;99.90
51035;DHT22;37062;52.546;13.230;2022-07-29T07:48:28;25.10;99.90
51035;DHT22;37062;52.546;13.230;2022-07-29T07:50:55;25.10;99.90
51035;DHT22;37062;52.546;13.230;2022-07-29T07:53:22;25.40;99.90
51035;DHT22;37062;52.546;13.230;2022-07-29T07:55:49;26.00;99.90
51035;DHT22;37062;52.546;13.230;2022-07-29T07:58:18;26.30;99.90
51035;DHT22;37062;52.546;13.230;2022-07-29T08:00:45;26.70;99.90
51035;DHT22;37062;52.546;13.230;2022-07-29T08:03:12;27.00;99.90
51035;DHT22;37062;52.546;13.230;2022-07-29T08:05:39;27.30;99.90
51035;DHT22;37062;52.546;13.230;2022-07-29T08:08:07;27.70;99.90
51035;DHT22;37062;52.546;13.230;2022-07-29T08:10:34;27.90;99.90
51035;DHT22;37062;52.546;13.230;2022-07-29T08:13:24;28.40;99.90
51035;DHT22;37062;52.546;13.230;2022-07-29T08:15:54;29.30;99.90
51035;DHT22;37062;52.546;13.230;2022-07-29T08:18:25;30.20;99.90
51035;DHT22;37062;52.546;13.230;2022-07-29T08:20:52;30.60;99.90
51035;DHT22;37062;52.546;13.230;2022-07-29T08:23:19;30.70;99.90
51035;DHT22;37062;52.546;13.230;2022-07-29T08:25:46;31.10;99.90
51035;DHT22;37062;52.546;13.230;2022-07-29T08:28:14;31.80;99.90
51035;DHT22;37062;52.546;13.230;2022-07-29T08:30:42;31.80;99.90
51035;DHT22;37062;52.546;13.230;2022-07-29T08:33:09;31.70;99.90
51035;DHT22;37062;52.546;13.230;2022-07-29T08:35:36;31.40;99.90
51035;DHT22;37062;52.546;13.230;2022-07-29T08:38:03;32.00;99.90
51035;DHT22;37062;52.546;13.230;2022-07-29T08:40:30;32.50;99.90
51035;DHT22;37062;52.546;13.230;2022-07-29T08:42:57;32.80;99.90
51035;DHT22;37062;52.546;13.230;2022-07-29T08:45:25;32.50;99.90
51035;DHT22;37062;52.546;13.230;2022-07-29T08:47:55;32.00;99.90
51035;DHT22;37062;52.546;13.230;2022-07-29T08:50:22;32.40;99.90
51035;DHT22;37062;52.546;13.230;2022-07-29T08:52:50;32.40;99.90
51035;DHT22;37062;52.546;13.230;2022-07-29T08:55:17;32.60;99.90
51035;DHT22;37062;52.546;13.230;2022-07-29T08:57:45;33.20;99.90
51035;DHT22;37062;52.546;13.230;2022-07-29T09:00:12;33.30;99.90
51035;DHT22;37062;52.546;13.230;2022-07-29T09:02:41;32.90;99.20
51035;DHT22;37062;52.546;13.230;2022-07-29T09:05:12;33.00;99.20
51035;DHT22;37062;52.546;13.230;2022-07-29T09:07:44;33.60;98.90
51035;DHT22;37062;52.546;13.230;2022-07-29T09:10:20;33.50;98.10
51035;DHT22;37062;52.546;13.230;2022-07-29T09:12:47;33.20;98.00
51035;DHT22;37062;52.546;13.230;2022-07-29T09:15:15;33.30;98.10
51035;DHT22;37062;52.546;13.230;2022-07-29T09:17:43;33.50;97.60
51035;DHT22;37062;52.546;13.230;2022-07-29T09:20:14;32.70;97.10
51035;DHT22;37062;52.546;13.230;2022-07-29T09:22:41;31.70;97.90
51035;DHT22;37062;52.546;13.230;2022-07-29T09:25:10;31.50;98.60
51035;DHT22;37062;52.546;13.230;2022-07-29T09:27:38;32.00;97.90
51035;DHT22;37062;52.546;13.230;2022-07-29T09:30:07;31.90;96.90
51035;DHT22;37062;52.546;13.230;2022-07-29T09:32:54;31.70;97.40
51035;DHT22;37062;52.546;13.230;2022-07-29T09:35:24;32.00;97.50
51035;DHT22;37062;52.546;13.230;2022-07-29T09:37:52;32.10;97.30
51035;DHT22;37062;52.546;13.230;2022-07-29T09:40:20;31.30;97.40
51035;DHT22;37062;52.546;13.230;2022-07-29T09:42:48;30.80;97.40
51035;DHT22;37062;52.546;13.230;2022-07-29T09:45:26;30.70;98.30
51035;DHT22;37062;52.546;13.230;2022-07-29T09:47:54;31.00;97.70
51035;DHT22;37062;52.546;13.230;2022-07-29T09:50:36;30.60;97.40
51035;DHT22;37062;52.546;13.230;2022-07-29T09:53:04;29.90;97.60
51035;DHT22;37062;52.546;13.230;2022-07-29T09:55:31;30.00;98.20
51035;DHT22;37062;52.546;13.230;2022-07-29T09:58:16;30.20;98.00
51035;DHT22;37062;52.546;13.230;2022-07-29T10:00:44;30.40;97.80
51035;DHT22;37062;52.546;13.230;2022-07-29T10:03:12;30.00;97.70
51035;DHT22;37062;52.546;13.230;2022-07-29T10:05:40;28.90;97.70
51035;DHT22;37062;52.546;13.230;2022-07-29T10:08:08;28.50;98.30
51035;DHT22;37062;52.546;13.230;2022-07-29T10:10:37;28.30;97.90
51035;DHT22;37062;52.546;13.230;2022-07-29T10:13:07;28.00;98.10
51035;DHT22;37062;52.546;13.230;2022-07-29T10:15:36;28.50;98.50
51035;DHT22;37062;52.546;13.230;2022-07-29T10:18:05;29.10;97.20
51035;DHT22;37062;52.546;13.230;2022-07-29T10:20:32;29.30;97.70
51035;DHT22;37062;52.546;13.230;2022-07-29T10:23:01;28.80;97.30
51035;DHT22;37062;52.546;13.230;2022-07-29T10:25:28;28.20;98.50
51035;DHT22;37062;52.546;13.230;2022-07-29T10:27:55;27.90;98.60
51035;DHT22;37062;52.546;13.230;2022-07-29T10:30:24;27.70;99.10
51035;DHT22;37062;52.546;13.230;2022-07-29T10:33:10;27.60;99.30
51035;DHT22;37062;52.546;13.230;2022-07-29T10:35:48;27.40;99.40
51035;DHT22;37062;52.546;13.230;2022-07-29T10:38:47;27.30;99.40
51035;DHT22;37062;52.546;13.230;2022-07-29T10:41:43;27.40;99.00
51035;DHT22;37062;52.546;13.230;2022-07-29T10:44:17;27.10;98.40
51035;DHT22;37062;52.546;13.230;2022-07-29T10:46:45;27.30;98.70
51035;DHT22;37062;52.546;13.230;2022-07-29T10:49:14;27.40;98.80
51035;DHT22;37062;52.546;13.230;2022-07-29T10:52:02;27.40;98.90
51035;DHT22;37062;52.546;13.230;2022-07-29T10:54:48;27.50;98.60
51035;DHT22;37062;52.546;13.230;2022-07-29T10:57:26;27.60;99.00
51035;DHT22;37062;52.546;13.230;2022-07-29T11:00:30;27.80;98.90
51035;DHT22;37062;52.546;13.230;2022-07-29T11:02:57;28.20;98.70
51035;DHT22;37062;52.546;13.230;2022-07-29T11:05:25;28.30;98.70
51035;DHT22;37062;52.546;13.230;2022-07-29T11:08:20;28.30;98.50
51035;DHT22;37062;52.546;13.230;2022-07-29T11:10:51;28.40;99.20
51035;DHT22;37062;52.546;13.230;2022-07-29T11:13:46;28.80;98.80
51035;DHT22;37062;52.546;13.230;2022-07-29T11:16:14;28.80;98.00
51035;DHT22;37062;52.546;13.230;2022-07-29T11:19:18;28.70;98.30
51035;DHT22;37062;52.546;13.230;2022-07-29T11:21:46;28.40;98.20
51035;DHT22;37062;52.546;13.230;2022-07-29T11:24:16;28.20;98.90
51035;DHT22;37062;52.546;13.230;2022-07-29T11:26:59;28.20;98.40
51035;DHT22;37062;52.546;13.230;2022-07-29T11:29:32;28.20;99.00
51035;DHT22;37062;52.546;13.230;2022-07-29T11:32:09;28.40;98.70
51035;DHT22;37062;52.546;13.230;2022-07-29T11:34:36;28.20;98.50
51035;DHT22;37062;52.546;13.230;2022-07-29T11:37:17;28.10;98.70
51035;DHT22;37062;52.546;13.230;2022-07-29T11:39:45;27.90;98.60
51035;DHT22;37062;52.546;13.230;2022-07-29T11:42:43;27.70;98.90
51035;DHT22;37062;52.546;13.230;2022-07-29T11:45:13;28.00;99.70
51035;DHT22;37062;52.546;13.230;2022-07-29T11:47:46;28.10;99.50
51035;DHT22;37062;52.546;13.230;2022-07-29T11:50:16;28.20;99.30
51035;DHT22;37062;52.546;13.230;2022-07-29T11:52:45;28.20;99.60
51035;DHT22;37062;52.546;13.230;2022-07-29T11:55:15;28.10;99.90
51035;DHT22;37062;52.546;13.230;2022-07-29T11:57:50;28.20;99.90
51035;DHT22;37062;52.546;13.230;2022-07-29T12:00:24;28.40;99.80
51035;DHT22;37062;52.546;13.230;2022-07-29T12:02:52;28.30;99.50
51035;DHT22;37062;52.546;13.230;2022-07-29T12:05:19;28.20;99.70
51035;DHT22;37062;52.546;13.230;2022-07-29T12:07:47;28.10;99.90
51035;DHT22;37062;52.546;13.230;2022-07-29T12:10:15;28.00;99.90
51035;DHT22;37062;52.546;13.230;2022-07-29T12:12:42;28.20;99.90
51035;DHT22;37062;52.546;13.230;2022-07-29T12:15:15;28.20;99.90
51035;DHT22;37062;52.546;13.230;2022-07-29T12:17:46;28.20;99.90
51035;DHT22;37062;52.546;13.230;2022-07-29T12:20:14;28.10;99.90
51035;DHT22;37062;52.546;13.230;2022-07-29T12:22:48;28.10;99.90
51035;DHT22;37062;52.546;13.230;2022-07-29T12:25:15;27.90;99.90
51035;DHT22;37062;52.546;13.230;2022-07-29T12:27:44;27.90;99.90
51035;DHT22;37062;52.546;13.230;2022-07-29T12:30:14;28.00;99.90
51035;DHT22;37062;52.546;13.230;2022-07-29T12:32:43;28.10;99.90
51035;DHT22;37062;52.546;13.230;2022-07-29T12:35:12;28.00;99.90
51035;DHT22;37062;52.546;13.230;2022-07-29T12:37:42;27.80;99.90
51035;DHT22;37062;52.546;13.230;2022-07-29T12:40:11;27.90;99.90
51035;DHT22;37062;52.546;13.230;2022-07-29T12:42:38;28.10;99.90
51035;DHT22;37062;52.546;13.230;2022-07-29T12:45:07;28.20;99.90
51035;DHT22;37062;52.546;13.230;2022-07-29T12:47:51;28.30;99.90
51035;DHT22;37062;52.546;13.230;2022-07-29T12:50:18;28.20;99.90
51035;DHT22;37062;52.546;13.230;2022-07-29T12:52:46;28.10;99.90
51035;DHT22;37062;52.546;13.230;2022-07-29T12:55:14;28.10;99.90
51035;DHT22;37062;52.546;13.230;2022-07-29T12:57:45;28.10;99.90
51035;DHT22;37062;52.546;13.230;2022-07-29T13:00:13;28.00;99.90
51035;DHT22;37062;52.546;13.230;2022-07-29T13:02:42;27.90;99.90
51035;DHT22;37062;52.546;13.230;2022-07-29T13:05:10;27.90;99.90
51035;DHT22;37062;52.546;13.230;2022-07-29T13:07:38;27.90;99.90
51035;DHT22;37062;52.546;13.230;2022-07-29T13:10:12;28.00;99.90
51035;DHT22;37062;52.546;13.230;2022-07-29T13:15:21;28.10;99.90
51035;DHT22;37062;52.546;13.230;2022-07-29T13:17:50;28.20;99.90
51035;DHT22;37062;52.546;13.230;2022-07-29T13:20:17;28.40;99.90
51035;DHT22;37062;52.546;13.230;2022-07-29T13:22:47;28.50;99.90
51035;DHT22;37062;52.546;13.230;2022-07-29T13:25:23;28.70;99.90
51035;DHT22;37062;52.546;13.230;2022-07-29T13:27:51;28.80;99.90
51035;DHT22;37062;52.546;13.230;2022-07-29T13:30:20;28.60;99.90
51035;DHT22;37062;52.546;13.230;2022-07-29T13:32:49;28.40;99.90
51035;DHT22;37062;52.546;13.230;2022-07-29T13:35:17;28.40;99.90
51035;DHT22;37062;52.546;13.230;2022-07-29T13:37:44;28.30;99.90
51035;DHT22;37062;52.546;13.230;2022-07-29T13:40:12;28.30;99.90
51035;DHT22;37062;52.546;13.230;2022-07-29T13:42:39;28.30;99.90
51035;DHT22;37062;52.546;13.230;2022-07-29T13:45:07;28.30;99.90
51035;DHT22;37062;52.546;13.230;2022-07-29T13:47:35;28.50;99.90
51035;DHT22;37062;52.546;13.230;2022-07-29T13:50:05;28.70;99.90
51035;DHT22;37062;52.546;13.230;2022-07-29T13:52:33;28.80;99.90
51035;DHT22;37062;52.546;13.230;2022-07-29T13:55:00;28.80;99.90
51035;DHT22;37062;52.546;13.230;2022-07-29T13:57:27;28.70;99.90
51035;DHT22;37062;52.546;13.230;2022-07-29T13:59:55;28.70;99.90
51035;DHT22;37062;52.546;13.230;2022-07-29T14:02:22;28.60;99.90
51035;DHT22;37062;52.546;13.230;2022-07-29T14:04:49;28.50;99.90
51035;DHT22;37062;52.546;13.230;2022-07-29T14:07:18;28.60;99.90
51035;DHT22;37062;52.546;13.230;2022-07-29T14:09:44;28.80;99.90
51035;DHT22;37062;52.546;13.230;2022-07-29T14:12:12;28.90;99.90
51035;DHT22;37062;52.546;13.230;2022-07-29T14:14:38;29.00;99.90
51035;DHT22;37062;52.546;13.230;2022-07-29T14:17:07;29.10;99.90
51035;DHT22;37062;52.546;13.230;2022-07-29T14:19:34;29.00;99.90
51035;DHT22;37062;52.546;13.230;2022-07-29T14:22:04;28.90;99.90
51035;DHT22;37062;52.546;13.230;2022-07-29T14:24:33;29.00;99.90
51035;DHT22;37062;52.546;13.230;2022-07-29T14:27:00;29.10;99.90
51035;DHT22;37062;52.546;13.230;2022-07-29T14:29:27;29.20;99.90
51035;DHT22;37062;52.546;13.230;2022-07-29T14:31:54;29.30;99.90
51035;DHT22;37062;52.546;13.230;2022-07-29T14:34:21;29.30;99.90
51035;DHT22;37062;52.546;13.230;2022-07-29T14:36:48;29.30;99.90
51035;DHT22;37062;52.546;13.230;2022-07-29T14:39:15;29.40;99.90
51035;DHT22;37062;52.546;13.230;2022-07-29T14:41:43;29.50;99.90
51035;DHT22;37062;52.546;13.230;2022-07-29T14:44:10;29.50;99.90
51035;DHT22;37062;52.546;13.230;2022-07-29T14:46:38;29.40;99.90
51035;DHT22;37062;52.546;13.230;2022-07-29T14:49:05;29.50;99.90
51035;DHT22;37062;52.546;13.230;2022-07-29T14:51:32;29.50;99.90
51035;DHT22;37062;52.546;13.230;2022-07-29T14:53:59;29.50;99.90
51035;DHT22;37062;52.546;13.230;2022-07-29T14:56:26;29.50;99.90
51035;DHT22;37062;52.546;13.230;2022-07-29T14:58:56;29.40;99.90
51035;DHT22;37062;52.546;13.230;2022-07-29T15:01:24;29.40;99.90
51035;DHT22;37062;52.546;13.230;2022-07-29T15:03:51;29.50;99.90
51035;DHT22;37062;52.546;13.230;2022-07-29T15:06:18;29.50;99.90
51035;DHT22;37062;52.546;13.230;2022-07-29T15:08:45;29.50;99.90
51035;DHT22;37062;52.546;13.230;2022-07-29T15:11:12;29.60;99.90
51035;DHT22;37062;52.546;13.230;2022-07-29T15:13:39;29.70;99.90
51035;DHT22;37062;52.546;13.230;2022-07-29T15:16:07;29.90;99.90
51035;DHT22;37062;52.546;13.230;2022-07-29T15:18:34;29.90;99.90
51035;DHT22;37062;52.546;13.230;2022-07-29T15:21:04;29.80;99.90
51035;DHT22;37062;52.546;13.230;2022-07-29T15:23:32;29.80;99.90
51035;DHT22;37062;52.546;13.230;2022-07-29T15:26:04;29.50;99.90
51035;DHT22;37062;52.546;13.230;2022-07-29T15:28:31;29.20;99.90
51035;DHT22;37062;52.546;13.230;2022-07-29T15:30:58;29.00;99.90
51035;DHT22;37062;52.546;13.230;2022-07-29T15:33:26;28.80;99.90